createdAt,value
2018-08-13T00:01:57.869Z,14.30
2018-08-13T00:04:30.192Z,14.30
2018-08-13T00:06:59.262Z,14.20
2018-08-13T00:09:36.471Z,14.20
2018-08-13T00:12:05.390Z,14.10
2018-08-13T00:14:41.040Z,14.10
2018-08-13T00:17:10.095Z,14.00
2018-08-13T00:19:43.705Z,14.00
2018-08-13T00:22:12.790Z,14.00
2018-08-13T00:24:44.682Z,13.90
2018-08-13T00:27:13.731Z,13.90
2018-08-13T00:29:46.437Z,13.80
2018-08-13T00:32:15.497Z,13.80
2018-08-13T00:34:49.063Z,13.70
2018-08-13T00:37:18.048Z,13.70
2018-08-13T00:39:50.857Z,13.70
2018-08-13T00:42:19.951Z,13.60
2018-08-13T00:44:52.639Z,13.60
2018-08-13T00:47:21.626Z,13.60
2018-08-13T00:49:54.440Z,13.50
2018-08-13T00:52:23.468Z,13.50
2018-08-13T00:54:56.225Z,13.40
2018-08-13T00:57:25.288Z,13.40
2018-08-13T00:59:58.885Z,13.40
2018-08-13T01:02:27.882Z,13.40
2018-08-13T01:04:59.793Z,13.40
2018-08-13T01:07:28.815Z,13.40
2018-08-13T01:10:00.730Z,13.40
2018-08-13T01:12:30.503Z,13.40
2018-08-13T01:15:06.074Z,13.50
2018-08-13T01:17:35.345Z,13.50
2018-08-13T01:20:08.815Z,13.60
2018-08-13T01:22:37.948Z,13.70
2018-08-13T01:25:11.552Z,13.60
2018-08-13T01:27:41.050Z,13.60
2018-08-13T01:30:15.061Z,13.60
2018-08-13T01:32:44.151Z,13.50
2018-08-13T01:35:17.795Z,13.50
2018-08-13T01:37:46.846Z,13.50
2018-08-13T01:40:19.624Z,13.50
2018-08-13T01:42:49.473Z,13.40
2018-08-13T01:45:21.338Z,13.50
2018-08-13T01:47:50.438Z,13.40
2018-08-13T01:50:23.156Z,13.40
2018-08-13T01:52:52.581Z,13.40
2018-08-13T01:55:25.973Z,13.30
2018-08-13T01:57:54.958Z,13.30
2018-08-13T02:00:26.827Z,13.30
2018-08-13T02:02:55.719Z,13.20
2018-08-13T02:05:27.572Z,13.20
2018-08-13T02:07:56.604Z,13.10
2018-08-13T02:10:28.438Z,13.10
2018-08-13T02:12:57.551Z,13.00
2018-08-13T02:15:34.129Z,13.00
2018-08-13T02:18:03.200Z,13.00
2018-08-13T02:20:35.678Z,12.90
2018-08-13T02:23:04.868Z,12.80
2018-08-13T02:25:37.545Z,12.80
2018-08-13T02:28:06.539Z,12.70
2018-08-13T02:30:40.138Z,12.80
2018-08-13T02:33:09.310Z,12.80
2018-08-13T02:35:42.024Z,12.80
2018-08-13T02:38:11.060Z,12.70
2018-08-13T02:40:42.820Z,12.60
2018-08-13T02:43:11.841Z,12.50
2018-08-13T02:45:43.647Z,12.50
2018-08-13T02:48:12.768Z,12.50
2018-08-13T02:50:44.569Z,12.40
2018-08-13T02:53:13.742Z,12.40
2018-08-13T02:55:46.358Z,12.30
2018-08-13T02:58:15.543Z,12.30
2018-08-13T03:00:49.053Z,12.30
2018-08-13T03:03:18.116Z,12.20
2018-08-13T03:05:54.402Z,12.20
2018-08-13T03:08:23.502Z,12.10
2018-08-13T03:10:57.407Z,12.10
2018-08-13T03:13:26.554Z,12.10
2018-08-13T03:16:03.503Z,12.00
2018-08-13T03:18:32.907Z,12.00
2018-08-13T03:21:05.368Z,12.00
2018-08-13T03:23:34.153Z,11.90
2018-08-13T03:26:08.063Z,11.90
2018-08-13T03:28:36.976Z,11.90
2018-08-13T03:31:08.897Z,11.80
2018-08-13T03:33:37.924Z,11.80
2018-08-13T03:36:11.520Z,11.80
2018-08-13T03:38:41.014Z,11.80
2018-08-13T03:41:13.466Z,11.70
2018-08-13T03:43:42.723Z,11.60
2018-08-13T03:46:16.184Z,11.60
2018-08-13T03:48:45.244Z,11.60
2018-08-13T03:51:17.954Z,11.60
2018-08-13T03:53:47.123Z,11.60
2018-08-13T03:56:23.669Z,11.60
2018-08-13T03:58:52.853Z,11.50
2018-08-13T04:01:26.986Z,11.50
2018-08-13T04:03:56.481Z,11.50
2018-08-13T04:06:29.553Z,11.50
2018-08-13T04:08:58.796Z,11.60
2018-08-13T04:11:31.365Z,11.50
2018-08-13T04:14:00.472Z,11.50
2018-08-13T04:16:36.801Z,11.50
2018-08-13T04:19:07.042Z,11.60
2018-08-13T04:21:39.463Z,11.50
2018-08-13T04:24:08.709Z,11.60
2018-08-13T04:26:42.284Z,11.60
2018-08-13T04:29:11.750Z,11.70
2018-08-13T04:31:43.986Z,11.80
2018-08-13T04:34:13.667Z,11.90
2018-08-13T04:36:45.748Z,12.00
2018-08-13T04:39:15.068Z,12.00
2018-08-13T04:41:47.587Z,12.20
2018-08-13T04:44:23.636Z,12.20
2018-08-13T04:46:56.567Z,12.30
2018-08-13T04:49:25.869Z,12.30
2018-08-13T04:51:59.326Z,12.50
2018-08-13T04:54:28.908Z,12.70
2018-08-13T04:57:01.950Z,12.70
2018-08-13T04:59:31.363Z,12.80
2018-08-13T05:02:04.623Z,12.80
2018-08-13T05:04:34.354Z,13.00
2018-08-13T05:07:06.380Z,13.00
2018-08-13T05:09:35.307Z,13.20
2018-08-13T05:12:08.986Z,13.40
2018-08-13T05:14:37.602Z,13.60
2018-08-13T05:17:14.444Z,13.70
2018-08-13T05:19:42.977Z,13.80
2018-08-13T05:22:11.615Z,14.00
2018-08-13T05:24:43.984Z,14.10
2018-08-13T05:27:12.664Z,14.30
2018-08-13T05:29:45.759Z,14.40
2018-08-13T20:36:33.383Z,14.80
2018-08-13T20:39:17.479Z,20.90
2018-08-13T20:41:47.292Z,20.60
2018-08-13T20:44:20.527Z,20.60
2018-08-13T20:46:50.703Z,20.50
2018-08-13T20:49:28.209Z,20.50
2018-08-13T20:51:58.677Z,20.50
2018-08-13T20:54:32.254Z,20.50
2018-08-13T20:57:01.968Z,20.50
2018-08-13T20:59:35.915Z,20.40
2018-08-13T21:02:07.244Z,20.40
2018-08-13T21:04:42.281Z,20.40
2018-08-13T21:07:12.022Z,20.40
2018-08-13T21:09:47.310Z,20.30
2018-08-13T21:12:17.054Z,20.30
2018-08-13T21:14:49.320Z,20.20
2018-08-13T21:17:18.357Z,20.10
2018-08-13T21:19:52.835Z,20.10
2018-08-13T21:22:22.148Z,20.00
2018-08-13T21:24:55.551Z,20.00
2018-08-13T21:27:24.543Z,20.00
2018-08-13T21:30:01.220Z,20.00
2018-08-13T21:32:30.486Z,20.00
2018-08-13T21:35:03.576Z,19.90
2018-08-13T21:37:36.369Z,20.00
2018-08-13T21:40:10.789Z,19.90
2018-08-13T21:42:39.840Z,20.00
2018-08-13T21:45:13.522Z,20.00
2018-08-13T21:47:42.548Z,19.90
2018-08-13T21:50:20.723Z,19.90
2018-08-13T21:52:50.383Z,19.90
2018-08-13T21:55:22.606Z,19.90
2018-08-13T21:57:51.656Z,19.90
2018-08-13T22:00:32.941Z,19.80
2018-08-13T22:03:02.899Z,19.70
2018-08-13T22:05:36.151Z,19.70
2018-08-13T22:08:05.275Z,19.70
2018-08-13T22:10:38.823Z,19.60
2018-08-13T22:13:07.812Z,19.60
2018-08-13T22:15:40.592Z,19.60
2018-08-13T22:18:10.090Z,19.60
2018-08-13T22:20:42.278Z,19.50
2018-08-13T22:23:11.406Z,19.50
2018-08-13T22:25:44.959Z,19.50
2018-08-13T22:28:18.434Z,19.40
2018-08-13T22:30:51.319Z,19.40
2018-08-13T22:33:20.418Z,19.30
2018-08-13T22:35:52.262Z,19.30
2018-08-13T22:38:25.239Z,19.30
2018-08-13T22:40:58.541Z,19.20
2018-08-13T22:43:27.754Z,19.20
2018-08-13T22:46:00.361Z,19.20
2018-08-13T22:48:29.331Z,19.20
2018-08-13T22:51:02.072Z,19.10
2018-08-13T22:53:31.097Z,19.10
2018-08-13T22:56:03.892Z,19.00
2018-08-13T22:58:32.871Z,19.00
2018-08-13T23:01:05.646Z,19.00
2018-08-13T23:03:34.747Z,19.10
2018-08-13T23:06:07.453Z,19.10
2018-08-13T23:08:36.612Z,19.00
2018-08-13T23:11:09.456Z,18.90
2018-08-13T23:13:38.520Z,18.90
2018-08-13T23:16:11.044Z,18.90
2018-08-13T23:18:40.080Z,19.00
2018-08-13T23:21:12.772Z,18.90
2018-08-13T23:23:41.768Z,19.00
2018-08-13T23:26:14.653Z,18.90
2018-08-13T23:28:43.552Z,18.80
2018-08-13T23:31:15.590Z,18.80
2018-08-13T23:33:45.383Z,18.80
2018-08-13T23:36:17.302Z,18.90
2018-08-13T23:38:50.183Z,18.80
2018-08-13T23:41:23.633Z,18.70
2018-08-13T23:43:52.633Z,18.70
2018-08-13T23:46:24.508Z,18.60
2018-08-13T23:48:53.667Z,18.60
2018-08-13T23:51:26.281Z,18.60
2018-08-13T23:53:55.264Z,18.60
2018-08-13T23:56:27.120Z,18.60
2018-08-13T23:58:56.192Z,18.60
